sensor_id;sensor_type;location;lat;lon;timestamp;P1;durP1;ratioP1;P2;durP2;ratioP2
10557;SDS011;5327;47.238;-2.304;2023-05-10T00:01:29;1.47;;;0.67;;
10557;SDS011;5327;47.238;-2.304;2023-05-10T00:03:58;4.33;;;0.97;;
10557;SDS011;5327;47.238;-2.304;2023-05-10T00:06:23;1.10;;;1.00;;
10557;SDS011;5327;47.238;-2.304;2023-05-10T00:08:49;0.50;;;0.33;;
10557;SDS011;5327;47.238;-2.304;2023-05-10T00:11:15;1.13;;;0.50;;
10557;SDS011;5327;47.238;-2.304;2023-05-10T00:13:40;2.73;;;1.03;;
10557;SDS011;5327;47.238;-2.304;2023-05-10T00:16:06;4.63;;;1.07;;
10557;SDS011;5327;47.238;-2.304;2023-05-10T00:18:32;0.63;;;0.63;;
10557;SDS011;5327;47.238;-2.304;2023-05-10T00:20:57;9.53;;;0.70;;
10557;SDS011;5327;47.238;-2.304;2023-05-10T00:23:23;0.40;;;0.40;;
10557;SDS011;5327;47.238;-2.304;2023-05-10T00:25:49;0.30;;;0.30;;
10557;SDS011;5327;47.238;-2.304;2023-05-10T00:28:14;0.30;;;0.20;;
10557;SDS011;5327;47.238;-2.304;2023-05-10T00:30:40;0.93;;;0.87;;
10557;SDS011;5327;47.238;-2.304;2023-05-10T00:33:06;0.50;;;0.50;;
10557;SDS011;5327;47.238;-2.304;2023-05-10T00:35:31;2.00;;;1.50;;
10557;SDS011;5327;47.238;-2.304;2023-05-10T00:37:57;11.43;;;1.83;;
10557;SDS011;5327;47.238;-2.304;2023-05-10T00:40:23;0.40;;;0.40;;
10557;SDS011;5327;47.238;-2.304;2023-05-10T00:42:49;1.67;;;1.40;;
10557;SDS011;5327;47.238;-2.304;2023-05-10T00:45:14;2.73;;;1.27;;
10557;SDS011;5327;47.238;-2.304;2023-05-10T00:47:41;0.30;;;0.20;;
10557;SDS011;5327;47.238;-2.304;2023-05-10T00:50:07;0.47;;;0.47;;
10557;SDS011;5327;47.238;-2.304;2023-05-10T00:52:34;5.60;;;2.00;;
10557;SDS011;5327;47.238;-2.304;2023-05-10T00:54:59;2.97;;;0.70;;
10557;SDS011;5327;47.238;-2.304;2023-05-10T00:57:26;1.50;;;0.50;;
10557;SDS011;5327;47.238;-2.304;2023-05-10T00:59:53;0.30;;;0.30;;
10557;SDS011;5327;47.238;-2.304;2023-05-10T01:02:20;1.63;;;1.03;;
10557;SDS011;5327;47.238;-2.304;2023-05-10T01:04:46;0.30;;;0.20;;
10557;SDS011;5327;47.238;-2.304;2023-05-10T01:07:12;4.53;;;2.33;;
10557;SDS011;5327;47.238;-2.304;2023-05-10T01:09:37;0.67;;;0.67;;
10557;SDS011;5327;47.238;-2.304;2023-05-10T01:12:03;1.30;;;0.97;;
10557;SDS011;5327;47.238;-2.304;2023-05-10T01:14:31;1.27;;;0.67;;
10557;SDS011;5327;47.238;-2.304;2023-05-10T01:16:58;1.70;;;0.50;;
10557;SDS011;5327;47.238;-2.304;2023-05-10T01:19:26;0.20;;;0.20;;
10557;SDS011;5327;47.238;-2.304;2023-05-10T01:22:00;1.37;;;1.27;;
10557;SDS011;5327;47.238;-2.304;2023-05-10T01:24:46;4.27;;;0.63;;
10557;SDS011;5327;47.238;-2.304;2023-05-10T01:42:26;15.33;;;4.33;;
10557;SDS011;5327;47.238;-2.304;2023-05-10T01:45:00;0.83;;;0.83;;
10557;SDS011;5327;47.238;-2.304;2023-05-10T01:47:35;2.20;;;0.80;;
10557;SDS011;5327;47.238;-2.304;2023-05-10T01:50:06;11.50;;;2.10;;
10557;SDS011;5327;47.238;-2.304;2023-05-10T01:52:54;23.73;;;4.73;;
10557;SDS011;5327;47.238;-2.304;2023-05-10T01:55:23;18.93;;;4.70;;
10557;SDS011;5327;47.238;-2.304;2023-05-10T01:57:53;14.97;;;5.23;;
10557;SDS011;5327;47.238;-2.304;2023-05-10T02:00:27;25.27;;;3.70;;
10557;SDS011;5327;47.238;-2.304;2023-05-10T02:02:53;20.83;;;3.43;;
10557;SDS011;5327;47.238;-2.304;2023-05-10T02:05:20;18.30;;;4.30;;
10557;SDS011;5327;47.238;-2.304;2023-05-10T02:07:47;21.47;;;3.83;;
10557;SDS011;5327;47.238;-2.304;2023-05-10T02:10:15;28.20;;;4.37;;
10557;SDS011;5327;47.238;-2.304;2023-05-10T02:12:43;28.43;;;5.40;;
10557;SDS011;5327;47.238;-2.304;2023-05-10T02:15:11;12.23;;;2.90;;
10557;SDS011;5327;47.238;-2.304;2023-05-10T02:17:40;0.40;;;0.40;;
10557;SDS011;5327;47.238;-2.304;2023-05-10T02:20:08;0.90;;;0.90;;
10557;SDS011;5327;47.238;-2.304;2023-05-10T02:22:35;26.10;;;4.63;;
10557;SDS011;5327;47.238;-2.304;2023-05-10T02:25:02;17.33;;;5.53;;
10557;SDS011;5327;47.238;-2.304;2023-05-10T02:27:29;20.93;;;3.20;;
10557;SDS011;5327;47.238;-2.304;2023-05-10T02:29:55;16.57;;;3.73;;
10557;SDS011;5327;47.238;-2.304;2023-05-10T02:32:22;11.20;;;3.53;;
10557;SDS011;5327;47.238;-2.304;2023-05-10T02:34:51;12.47;;;2.80;;
10557;SDS011;5327;47.238;-2.304;2023-05-10T02:37:21;21.63;;;6.80;;
10557;SDS011;5327;47.238;-2.304;2023-05-10T02:39:50;13.57;;;3.83;;
10557;SDS011;5327;47.238;-2.304;2023-05-10T02:42:19;17.60;;;5.80;;
10557;SDS011;5327;47.238;-2.304;2023-05-10T02:44:50;19.57;;;5.30;;
10557;SDS011;5327;47.238;-2.304;2023-05-10T02:47:19;23.83;;;5.13;;
10557;SDS011;5327;47.238;-2.304;2023-05-10T02:49:48;22.63;;;4.23;;
10557;SDS011;5327;47.238;-2.304;2023-05-10T02:52:16;24.20;;;5.27;;
10557;SDS011;5327;47.238;-2.304;2023-05-10T02:54:48;25.03;;;5.63;;
10557;SDS011;5327;47.238;-2.304;2023-05-10T02:57:17;26.27;;;5.20;;
10557;SDS011;5327;47.238;-2.304;2023-05-10T02:59:51;17.93;;;4.80;;
10557;SDS011;5327;47.238;-2.304;2023-05-10T03:02:17;24.50;;;3.93;;
10557;SDS011;5327;47.238;-2.304;2023-05-10T03:04:42;21.20;;;5.17;;
10557;SDS011;5327;47.238;-2.304;2023-05-10T03:07:08;29.43;;;5.67;;
10557;SDS011;5327;47.238;-2.304;2023-05-10T03:09:35;19.63;;;4.57;;
10557;SDS011;5327;47.238;-2.304;2023-05-10T03:12:07;28.00;;;5.03;;
10557;SDS011;5327;47.238;-2.304;2023-05-10T03:17:42;24.87;;;4.90;;
10557;SDS011;5327;47.238;-2.304;2023-05-10T03:20:21;29.73;;;6.60;;
10557;SDS011;5327;47.238;-2.304;2023-05-10T03:22:55;17.60;;;4.97;;
10557;SDS011;5327;47.238;-2.304;2023-05-10T03:25:32;30.07;;;6.90;;
10557;SDS011;5327;47.238;-2.304;2023-05-10T03:28:00;25.27;;;4.90;;
10557;SDS011;5327;47.238;-2.304;2023-05-10T03:30:27;32.90;;;5.70;;
10557;SDS011;5327;47.238;-2.304;2023-05-10T03:32:53;23.40;;;6.30;;
10557;SDS011;5327;47.238;-2.304;2023-05-10T03:35:19;20.63;;;5.57;;
10557;SDS011;5327;47.238;-2.304;2023-05-10T03:37:45;25.70;;;5.10;;
10557;SDS011;5327;47.238;-2.304;2023-05-10T03:40:11;27.07;;;5.47;;
10557;SDS011;5327;47.238;-2.304;2023-05-10T03:42:38;30.70;;;5.33;;
10557;SDS011;5327;47.238;-2.304;2023-05-10T03:45:05;30.63;;;4.70;;
10557;SDS011;5327;47.238;-2.304;2023-05-10T03:47:32;31.83;;;6.00;;
10557;SDS011;5327;47.238;-2.304;2023-05-10T03:49:57;28.17;;;6.00;;
10557;SDS011;5327;47.238;-2.304;2023-05-10T03:52:23;26.83;;;5.23;;
10557;SDS011;5327;47.238;-2.304;2023-05-10T03:54:49;31.50;;;5.63;;
10557;SDS011;5327;47.238;-2.304;2023-05-10T03:57:14;34.13;;;5.77;;
10557;SDS011;5327;47.238;-2.304;2023-05-10T03:59:40;35.13;;;6.10;;
10557;SDS011;5327;47.238;-2.304;2023-05-10T04:02:06;35.33;;;6.13;;
10557;SDS011;5327;47.238;-2.304;2023-05-10T04:04:31;31.03;;;6.07;;
10557;SDS011;5327;47.238;-2.304;2023-05-10T04:06:57;31.90;;;6.20;;
10557;SDS011;5327;47.238;-2.304;2023-05-10T04:09:23;32.63;;;7.53;;
10557;SDS011;5327;47.238;-2.304;2023-05-10T04:11:48;28.10;;;6.80;;
10557;SDS011;5327;47.238;-2.304;2023-05-10T04:14:15;33.73;;;7.13;;
10557;SDS011;5327;47.238;-2.304;2023-05-10T04:16:41;36.37;;;5.50;;
10557;SDS011;5327;47.238;-2.304;2023-05-10T04:19:07;25.67;;;6.27;;
10557;SDS011;5327;47.238;-2.304;2023-05-10T04:21:32;25.53;;;5.43;;
10557;SDS011;5327;47.238;-2.304;2023-05-10T04:23:58;25.67;;;4.90;;
10557;SDS011;5327;47.238;-2.304;2023-05-10T04:26:24;33.27;;;6.87;;
10557;SDS011;5327;47.238;-2.304;2023-05-10T04:28:50;49.87;;;6.87;;
10557;SDS011;5327;47.238;-2.304;2023-05-10T04:31:16;27.90;;;5.90;;
10557;SDS011;5327;47.238;-2.304;2023-05-10T04:33:42;52.87;;;6.37;;
10557;SDS011;5327;47.238;-2.304;2023-05-10T04:36:07;32.40;;;5.70;;
10557;SDS011;5327;47.238;-2.304;2023-05-10T04:38:33;24.80;;;3.80;;
10557;SDS011;5327;47.238;-2.304;2023-05-10T04:41:08;28.00;;;6.90;;
10557;SDS011;5327;47.238;-2.304;2023-05-10T04:43:35;30.90;;;6.07;;
10557;SDS011;5327;47.238;-2.304;2023-05-10T04:46:01;36.20;;;6.60;;
10557;SDS011;5327;47.238;-2.304;2023-05-10T04:48:27;21.83;;;6.70;;
10557;SDS011;5327;47.238;-2.304;2023-05-10T04:50:53;29.53;;;6.67;;
10557;SDS011;5327;47.238;-2.304;2023-05-10T04:53:19;27.50;;;6.13;;
10557;SDS011;5327;47.238;-2.304;2023-05-10T04:55:47;36.43;;;7.70;;
10557;SDS011;5327;47.238;-2.304;2023-05-10T04:58:13;29.07;;;6.47;;
10557;SDS011;5327;47.238;-2.304;2023-05-10T05:00:39;37.10;;;7.33;;
10557;SDS011;5327;47.238;-2.304;2023-05-10T05:03:05;22.67;;;6.30;;
10557;SDS011;5327;47.238;-2.304;2023-05-10T05:05:31;32.03;;;6.60;;
10557;SDS011;5327;47.238;-2.304;2023-05-10T05:07:56;36.93;;;5.97;;
10557;SDS011;5327;47.238;-2.304;2023-05-10T05:10:22;31.33;;;6.17;;
10557;SDS011;5327;47.238;-2.304;2023-05-10T05:12:48;37.93;;;9.03;;
10557;SDS011;5327;47.238;-2.304;2023-05-10T05:15:13;28.40;;;5.93;;
10557;SDS011;5327;47.238;-2.304;2023-05-10T05:17:41;40.43;;;7.27;;
10557;SDS011;5327;47.238;-2.304;2023-05-10T05:20:07;25.43;;;6.00;;
10557;SDS011;5327;47.238;-2.304;2023-05-10T05:22:33;32.17;;;6.33;;
10557;SDS011;5327;47.238;-2.304;2023-05-10T05:25:00;29.77;;;6.60;;
10557;SDS011;5327;47.238;-2.304;2023-05-10T05:27:27;38.20;;;8.93;;
10557;SDS011;5327;47.238;-2.304;2023-05-10T05:29:53;68.60;;;6.47;;
10557;SDS011;5327;47.238;-2.304;2023-05-10T05:32:20;25.63;;;5.30;;
10557;SDS011;5327;47.238;-2.304;2023-05-10T05:34:46;22.43;;;4.40;;
10557;SDS011;5327;47.238;-2.304;2023-05-10T05:37:16;23.70;;;5.07;;
10557;SDS011;5327;47.238;-2.304;2023-05-10T05:39:46;31.37;;;6.00;;
10557;SDS011;5327;47.238;-2.304;2023-05-10T05:42:12;20.20;;;5.33;;
10557;SDS011;5327;47.238;-2.304;2023-05-10T05:44:38;26.67;;;5.60;;
10557;SDS011;5327;47.238;-2.304;2023-05-10T05:47:05;22.43;;;4.27;;
10557;SDS011;5327;47.238;-2.304;2023-05-10T05:49:31;31.43;;;6.53;;
10557;SDS011;5327;47.238;-2.304;2023-05-10T05:52:00;32.03;;;6.60;;
10557;SDS011;5327;47.238;-2.304;2023-05-10T05:54:27;30.00;;;5.47;;
10557;SDS011;5327;47.238;-2.304;2023-05-10T05:56:56;41.70;;;8.83;;
10557;SDS011;5327;47.238;-2.304;2023-05-10T05:59:22;30.40;;;5.97;;
10557;SDS011;5327;47.238;-2.304;2023-05-10T06:01:48;26.23;;;5.53;;
10557;SDS011;5327;47.238;-2.304;2023-05-10T06:04:14;52.63;;;9.20;;
10557;SDS011;5327;47.238;-2.304;2023-05-10T06:06:41;33.53;;;4.30;;
10557;SDS011;5327;47.238;-2.304;2023-05-10T06:09:07;25.27;;;5.03;;
10557;SDS011;5327;47.238;-2.304;2023-05-10T06:11:33;38.73;;;6.90;;
10557;SDS011;5327;47.238;-2.304;2023-05-10T06:13:59;38.53;;;7.70;;
10557;SDS011;5327;47.238;-2.304;2023-05-10T06:16:26;22.70;;;4.60;;
10557;SDS011;5327;47.238;-2.304;2023-05-10T06:18:52;27.87;;;5.70;;
10557;SDS011;5327;47.238;-2.304;2023-05-10T06:21:18;63.40;;;9.13;;
10557;SDS011;5327;47.238;-2.304;2023-05-10T06:23:43;29.37;;;5.00;;
10557;SDS011;5327;47.238;-2.304;2023-05-10T06:26:09;28.30;;;6.20;;
10557;SDS011;5327;47.238;-2.304;2023-05-10T06:28:35;23.30;;;5.00;;
10557;SDS011;5327;47.238;-2.304;2023-05-10T06:31:03;24.27;;;4.90;;
10557;SDS011;5327;47.238;-2.304;2023-05-10T06:33:29;33.53;;;6.33;;
10557;SDS011;5327;47.238;-2.304;2023-05-10T06:35:55;34.60;;;5.40;;
10557;SDS011;5327;47.238;-2.304;2023-05-10T06:38:21;38.63;;;7.20;;
10557;SDS011;5327;47.238;-2.304;2023-05-10T06:40:47;37.80;;;6.73;;
10557;SDS011;5327;47.238;-2.304;2023-05-10T06:43:12;28.43;;;7.50;;
10557;SDS011;5327;47.238;-2.304;2023-05-10T06:45:38;26.20;;;5.80;;
10557;SDS011;5327;47.238;-2.304;2023-05-10T06:48:04;23.37;;;6.13;;
10557;SDS011;5327;47.238;-2.304;2023-05-10T06:50:30;23.17;;;6.13;;
10557;SDS011;5327;47.238;-2.304;2023-05-10T06:52:56;27.37;;;6.70;;
10557;SDS011;5327;47.238;-2.304;2023-05-10T06:55:21;26.07;;;5.50;;
10557;SDS011;5327;47.238;-2.304;2023-05-10T06:57:47;23.77;;;5.23;;
10557;SDS011;5327;47.238;-2.304;2023-05-10T07:00:13;25.43;;;6.40;;
10557;SDS011;5327;47.238;-2.304;2023-05-10T07:02:39;39.60;;;6.13;;
10557;SDS011;5327;47.238;-2.304;2023-05-10T07:05:05;30.03;;;7.13;;
10557;SDS011;5327;47.238;-2.304;2023-05-10T07:07:32;44.70;;;7.60;;
10557;SDS011;5327;47.238;-2.304;2023-05-10T07:09:57;39.07;;;9.20;;
10557;SDS011;5327;47.238;-2.304;2023-05-10T07:12:24;35.57;;;8.40;;
10557;SDS011;5327;47.238;-2.304;2023-05-10T07:14:50;20.87;;;5.40;;
10557;SDS011;5327;47.238;-2.304;2023-05-10T07:17:15;32.93;;;5.60;;
10557;SDS011;5327;47.238;-2.304;2023-05-10T07:19:41;29.57;;;6.57;;
10557;SDS011;5327;47.238;-2.304;2023-05-10T07:22:07;38.17;;;6.50;;
10557;SDS011;5327;47.238;-2.304;2023-05-10T07:24:33;37.70;;;5.97;;
10557;SDS011;5327;47.238;-2.304;2023-05-10T07:26:58;27.07;;;7.57;;
10557;SDS011;5327;47.238;-2.304;2023-05-10T07:29:24;22.73;;;5.20;;
10557;SDS011;5327;47.238;-2.304;2023-05-10T07:31:53;37.20;;;7.40;;
10557;SDS011;5327;47.238;-2.304;2023-05-10T07:34:19;31.50;;;6.83;;
10557;SDS011;5327;47.238;-2.304;2023-05-10T07:36:45;16.10;;;4.40;;
10557;SDS011;5327;47.238;-2.304;2023-05-10T07:39:11;34.53;;;4.70;;
10557;SDS011;5327;47.238;-2.304;2023-05-10T07:41:37;17.40;;;3.17;;
10557;SDS011;5327;47.238;-2.304;2023-05-10T07:44:03;11.83;;;2.90;;
10557;SDS011;5327;47.238;-2.304;2023-05-10T07:46:29;26.27;;;5.27;;
10557;SDS011;5327;47.238;-2.304;2023-05-10T07:48:58;29.33;;;7.33;;
10557;SDS011;5327;47.238;-2.304;2023-05-10T07:51:24;37.13;;;7.43;;
10557;SDS011;5327;47.238;-2.304;2023-05-10T07:53:49;14.70;;;3.90;;
10557;SDS011;5327;47.238;-2.304;2023-05-10T07:56:25;24.63;;;4.30;;
10557;SDS011;5327;47.238;-2.304;2023-05-10T07:58:54;25.40;;;4.60;;
10557;SDS011;5327;47.238;-2.304;2023-05-10T08:01:21;27.30;;;5.50;;
10557;SDS011;5327;47.238;-2.304;2023-05-10T08:03:47;24.23;;;6.33;;
10557;SDS011;5327;47.238;-2.304;2023-05-10T08:06:13;58.20;;;7.67;;
10557;SDS011;5327;47.238;-2.304;2023-05-10T08:08:40;43.97;;;6.37;;
10557;SDS011;5327;47.238;-2.304;2023-05-10T08:11:07;26.43;;;4.53;;
10557;SDS011;5327;47.238;-2.304;2023-05-10T08:13:32;22.03;;;7.13;;
10557;SDS011;5327;47.238;-2.304;2023-05-10T08:15:59;28.13;;;5.97;;
10557;SDS011;5327;47.238;-2.304;2023-05-10T08:18:28;24.90;;;7.70;;
10557;SDS011;5327;47.238;-2.304;2023-05-10T08:20:54;19.93;;;5.30;;
10557;SDS011;5327;47.238;-2.304;2023-05-10T08:23:20;17.90;;;5.33;;
10557;SDS011;5327;47.238;-2.304;2023-05-10T08:25:45;23.80;;;3.67;;
10557;SDS011;5327;47.238;-2.304;2023-05-10T08:28:11;26.17;;;6.43;;
10557;SDS011;5327;47.238;-2.304;2023-05-10T08:30:37;21.17;;;4.17;;
10557;SDS011;5327;47.238;-2.304;2023-05-10T08:33:02;23.10;;;6.10;;
10557;SDS011;5327;47.238;-2.304;2023-05-10T08:35:28;19.20;;;4.37;;
10557;SDS011;5327;47.238;-2.304;2023-05-10T08:37:54;25.13;;;4.43;;
10557;SDS011;5327;47.238;-2.304;2023-05-10T08:40:20;14.50;;;4.00;;
10557;SDS011;5327;47.238;-2.304;2023-05-10T08:43:05;23.60;;;5.13;;
10557;SDS011;5327;47.238;-2.304;2023-05-10T08:45:32;19.03;;;4.97;;
10557;SDS011;5327;47.238;-2.304;2023-05-10T08:48:01;17.53;;;4.73;;
10557;SDS011;5327;47.238;-2.304;2023-05-10T08:50:28;21.40;;;4.10;;
10557;SDS011;5327;47.238;-2.304;2023-05-10T08:52:59;13.53;;;3.53;;
10557;SDS011;5327;47.238;-2.304;2023-05-10T08:55:27;13.67;;;3.97;;
10557;SDS011;5327;47.238;-2.304;2023-05-10T08:57:53;23.50;;;4.80;;
10557;SDS011;5327;47.238;-2.304;2023-05-10T09:00:19;20.10;;;5.00;;
10557;SDS011;5327;47.238;-2.304;2023-05-10T09:02:49;13.03;;;3.77;;
10557;SDS011;5327;47.238;-2.304;2023-05-10T09:05:15;14.60;;;4.10;;
10557;SDS011;5327;47.238;-2.304;2023-05-10T09:07:42;13.97;;;4.10;;
10557;SDS011;5327;47.238;-2.304;2023-05-10T09:10:08;13.57;;;3.40;;
10557;SDS011;5327;47.238;-2.304;2023-05-10T09:12:35;13.10;;;3.57;;
10557;SDS011;5327;47.238;-2.304;2023-05-10T09:15:02;17.30;;;4.33;;
10557;SDS011;5327;47.238;-2.304;2023-05-10T09:17:28;16.57;;;3.80;;
10557;SDS011;5327;47.238;-2.304;2023-05-10T09:20:02;24.13;;;4.43;;
10557;SDS011;5327;47.238;-2.304;2023-05-10T09:22:32;15.00;;;4.13;;
10557;SDS011;5327;47.238;-2.304;2023-05-10T09:27:30;20.20;;;4.90;;
10557;SDS011;5327;47.238;-2.304;2023-05-10T09:29:55;20.07;;;4.37;;
10557;SDS011;5327;47.238;-2.304;2023-05-10T09:32:21;16.67;;;3.50;;
10557;SDS011;5327;47.238;-2.304;2023-05-10T09:34:47;21.60;;;4.00;;
10557;SDS011;5327;47.238;-2.304;2023-05-10T09:37:15;17.57;;;4.77;;
10557;SDS011;5327;47.238;-2.304;2023-05-10T09:39:40;22.17;;;5.00;;
10557;SDS011;5327;47.238;-2.304;2023-05-10T09:42:09;21.57;;;4.30;;
10557;SDS011;5327;47.238;-2.304;2023-05-10T09:44:36;21.20;;;3.63;;
10557;SDS011;5327;47.238;-2.304;2023-05-10T09:47:03;17.93;;;4.07;;
10557;SDS011;5327;47.238;-2.304;2023-05-10T09:49:29;22.10;;;4.60;;
10557;SDS011;5327;47.238;-2.304;2023-05-10T09:52:05;21.53;;;4.53;;
10557;SDS011;5327;47.238;-2.304;2023-05-10T09:54:32;16.30;;;3.60;;
10557;SDS011;5327;47.238;-2.304;2023-05-10T09:56:59;21.77;;;4.43;;
10557;SDS011;5327;47.238;-2.304;2023-05-10T09:59:26;28.33;;;4.80;;
10557;SDS011;5327;47.238;-2.304;2023-05-10T10:01:53;18.83;;;4.17;;
10557;SDS011;5327;47.238;-2.304;2023-05-10T10:04:22;18.07;;;4.33;;
10557;SDS011;5327;47.238;-2.304;2023-05-10T10:06:58;22.63;;;4.03;;
10557;SDS011;5327;47.238;-2.304;2023-05-10T10:09:28;20.53;;;4.33;;
10557;SDS011;5327;47.238;-2.304;2023-05-10T10:11:54;14.00;;;4.07;;
10557;SDS011;5327;47.238;-2.304;2023-05-10T10:14:21;23.63;;;4.93;;
10557;SDS011;5327;47.238;-2.304;2023-05-10T10:16:48;18.10;;;4.37;;
10557;SDS011;5327;47.238;-2.304;2023-05-10T10:19:15;21.10;;;4.30;;
10557;SDS011;5327;47.238;-2.304;2023-05-10T10:21:40;14.93;;;3.20;;
10557;SDS011;5327;47.238;-2.304;2023-05-10T10:24:06;20.87;;;4.70;;
10557;SDS011;5327;47.238;-2.304;2023-05-10T10:26:35;14.57;;;2.50;;
10557;SDS011;5327;47.238;-2.304;2023-05-10T10:34:59;9.03;;;2.03;;
10557;SDS011;5327;47.238;-2.304;2023-05-10T10:37:41;13.50;;;2.27;;
10557;SDS011;5327;47.238;-2.304;2023-05-10T10:40:28;6.63;;;1.80;;
10557;SDS011;5327;47.238;-2.304;2023-05-10T10:42:55;10.10;;;2.37;;
10557;SDS011;5327;47.238;-2.304;2023-05-10T10:45:22;18.60;;;3.73;;
10557;SDS011;5327;47.238;-2.304;2023-05-10T10:47:53;10.73;;;2.70;;
10557;SDS011;5327;47.238;-2.304;2023-05-10T10:50:45;21.27;;;4.27;;
10557;SDS011;5327;47.238;-2.304;2023-05-10T10:53:11;22.90;;;3.73;;
10557;SDS011;5327;47.238;-2.304;2023-05-10T10:55:47;14.20;;;3.53;;
10557;SDS011;5327;47.238;-2.304;2023-05-10T10:58:29;10.87;;;2.63;;
10557;SDS011;5327;47.238;-2.304;2023-05-10T11:01:16;11.30;;;3.40;;
10557;SDS011;5327;47.238;-2.304;2023-05-10T11:06:30;10.03;;;2.33;;
10557;SDS011;5327;47.238;-2.304;2023-05-10T11:08:57;11.30;;;2.70;;
10557;SDS011;5327;47.238;-2.304;2023-05-10T11:11:24;10.63;;;3.80;;
10557;SDS011;5327;47.238;-2.304;2023-05-10T11:13:50;7.47;;;2.10;;
10557;SDS011;5327;47.238;-2.304;2023-05-10T11:16:20;14.83;;;2.83;;
10557;SDS011;5327;47.238;-2.304;2023-05-10T11:18:52;9.40;;;2.03;;
10557;SDS011;5327;47.238;-2.304;2023-05-10T11:21:19;10.43;;;2.87;;
10557;SDS011;5327;47.238;-2.304;2023-05-10T11:23:49;10.23;;;2.60;;
10557;SDS011;5327;47.238;-2.304;2023-05-10T11:26:16;16.50;;;2.63;;
10557;SDS011;5327;47.238;-2.304;2023-05-10T11:28:42;15.27;;;2.60;;
10557;SDS011;5327;47.238;-2.304;2023-05-10T11:31:09;11.33;;;2.83;;
10557;SDS011;5327;47.238;-2.304;2023-05-10T11:33:44;16.23;;;2.97;;
10557;SDS011;5327;47.238;-2.304;2023-05-10T11:36:13;13.20;;;2.73;;
10557;SDS011;5327;47.238;-2.304;2023-05-10T11:38:40;19.17;;;4.33;;
10557;SDS011;5327;47.238;-2.304;2023-05-10T11:41:07;12.80;;;2.37;;
10557;SDS011;5327;47.238;-2.304;2023-05-10T11:43:35;17.53;;;3.30;;
10557;SDS011;5327;47.238;-2.304;2023-05-10T11:46:03;15.60;;;3.20;;
10557;SDS011;5327;47.238;-2.304;2023-05-10T11:48:32;15.67;;;3.43;;
10557;SDS011;5327;47.238;-2.304;2023-05-10T11:50:58;22.77;;;5.57;;
10557;SDS011;5327;47.238;-2.304;2023-05-10T11:53:26;22.43;;;4.87;;
10557;SDS011;5327;47.238;-2.304;2023-05-10T11:55:52;22.87;;;4.63;;
10557;SDS011;5327;47.238;-2.304;2023-05-10T11:58:18;16.27;;;3.83;;
10557;SDS011;5327;47.238;-2.304;2023-05-10T12:00:44;16.67;;;3.67;;
10557;SDS011;5327;47.238;-2.304;2023-05-10T12:03:11;22.90;;;4.27;;
10557;SDS011;5327;47.238;-2.304;2023-05-10T12:05:36;31.27;;;5.53;;
10557;SDS011;5327;47.238;-2.304;2023-05-10T12:08:15;22.23;;;4.47;;
10557;SDS011;5327;47.238;-2.304;2023-05-10T12:10:45;21.23;;;4.40;;
10557;SDS011;5327;47.238;-2.304;2023-05-10T12:13:12;17.80;;;3.77;;
10557;SDS011;5327;47.238;-2.304;2023-05-10T12:15:39;20.13;;;4.93;;
10557;SDS011;5327;47.238;-2.304;2023-05-10T12:18:05;27.57;;;4.10;;
10557;SDS011;5327;47.238;-2.304;2023-05-10T12:20:31;16.37;;;3.20;;
10557;SDS011;5327;47.238;-2.304;2023-05-10T12:22:57;36.60;;;4.43;;
10557;SDS011;5327;47.238;-2.304;2023-05-10T12:25:32;26.20;;;5.57;;
10557;SDS011;5327;47.238;-2.304;2023-05-10T12:27:58;26.33;;;4.33;;
10557;SDS011;5327;47.238;-2.304;2023-05-10T12:30:28;19.13;;;4.50;;
10557;SDS011;5327;47.238;-2.304;2023-05-10T12:32:59;24.00;;;4.10;;
10557;SDS011;5327;47.238;-2.304;2023-05-10T12:35:32;22.90;;;4.10;;
10557;SDS011;5327;47.238;-2.304;2023-05-10T12:37:58;18.17;;;4.13;;
10557;SDS011;5327;47.238;-2.304;2023-05-10T12:40:24;14.40;;;3.43;;
10557;SDS011;5327;47.238;-2.304;2023-05-10T12:42:50;28.43;;;5.23;;
10557;SDS011;5327;47.238;-2.304;2023-05-10T12:45:16;19.50;;;4.60;;
10557;SDS011;5327;47.238;-2.304;2023-05-10T12:47:42;20.33;;;4.30;;
10557;SDS011;5327;47.238;-2.304;2023-05-10T12:50:08;18.07;;;3.93;;
10557;SDS011;5327;47.238;-2.304;2023-05-10T12:52:34;17.23;;;4.87;;
10557;SDS011;5327;47.238;-2.304;2023-05-10T12:55:00;22.03;;;4.50;;
10557;SDS011;5327;47.238;-2.304;2023-05-10T12:57:26;19.37;;;4.40;;
10557;SDS011;5327;47.238;-2.304;2023-05-10T12:59:52;17.67;;;4.10;;
10557;SDS011;5327;47.238;-2.304;2023-05-10T13:02:18;21.50;;;4.13;;
10557;SDS011;5327;47.238;-2.304;2023-05-10T13:04:45;18.87;;;4.50;;
10557;SDS011;5327;47.238;-2.304;2023-05-10T13:07:11;22.50;;;5.27;;
10557;SDS011;5327;47.238;-2.304;2023-05-10T13:09:37;18.87;;;5.40;;
10557;SDS011;5327;47.238;-2.304;2023-05-10T13:12:02;22.87;;;4.80;;
10557;SDS011;5327;47.238;-2.304;2023-05-10T13:14:28;20.57;;;4.10;;
10557;SDS011;5327;47.238;-2.304;2023-05-10T13:16:55;21.97;;;4.03;;
10557;SDS011;5327;47.238;-2.304;2023-05-10T13:22:43;19.53;;;3.80;;
10557;SDS011;5327;47.238;-2.304;2023-05-10T13:25:09;24.23;;;4.17;;
10557;SDS011;5327;47.238;-2.304;2023-05-10T13:27:36;16.27;;;4.23;;
10557;SDS011;5327;47.238;-2.304;2023-05-10T13:30:02;22.03;;;3.80;;
10557;SDS011;5327;47.238;-2.304;2023-05-10T13:32:29;29.27;;;6.10;;
10557;SDS011;5327;47.238;-2.304;2023-05-10T13:34:55;23.27;;;4.10;;
10557;SDS011;5327;47.238;-2.304;2023-05-10T13:37:24;17.77;;;4.20;;
10557;SDS011;5327;47.238;-2.304;2023-05-10T13:39:51;22.23;;;4.27;;
10557;SDS011;5327;47.238;-2.304;2023-05-10T13:42:18;24.33;;;5.00;;
10557;SDS011;5327;47.238;-2.304;2023-05-10T13:44:44;26.23;;;5.27;;
10557;SDS011;5327;47.238;-2.304;2023-05-10T13:47:10;20.47;;;4.00;;
10557;SDS011;5327;47.238;-2.304;2023-05-10T13:49:36;19.73;;;4.53;;
10557;SDS011;5327;47.238;-2.304;2023-05-10T13:52:02;23.43;;;4.83;;
10557;SDS011;5327;47.238;-2.304;2023-05-10T13:54:31;33.83;;;5.07;;
10557;SDS011;5327;47.238;-2.304;2023-05-10T13:56:58;37.20;;;5.40;;
10557;SDS011;5327;47.238;-2.304;2023-05-10T13:59:24;22.40;;;4.80;;
10557;SDS011;5327;47.238;-2.304;2023-05-10T14:01:50;25.53;;;4.80;;
10557;SDS011;5327;47.238;-2.304;2023-05-10T14:04:15;30.30;;;5.80;;
10557;SDS011;5327;47.238;-2.304;2023-05-10T14:06:41;22.30;;;5.13;;
10557;SDS011;5327;47.238;-2.304;2023-05-10T14:09:07;25.43;;;4.50;;
10557;SDS011;5327;47.238;-2.304;2023-05-10T14:11:33;27.83;;;5.87;;
10557;SDS011;5327;47.238;-2.304;2023-05-10T14:13:59;25.63;;;5.87;;
10557;SDS011;5327;47.238;-2.304;2023-05-10T14:16:28;28.53;;;5.30;;
10557;SDS011;5327;47.238;-2.304;2023-05-10T14:18:53;23.50;;;4.90;;
10557;SDS011;5327;47.238;-2.304;2023-05-10T14:21:19;26.20;;;4.80;;
10557;SDS011;5327;47.238;-2.304;2023-05-10T14:23:45;22.73;;;5.10;;
10557;SDS011;5327;47.238;-2.304;2023-05-10T14:26:11;29.23;;;4.63;;
10557;SDS011;5327;47.238;-2.304;2023-05-10T14:28:37;29.10;;;5.33;;
10557;SDS011;5327;47.238;-2.304;2023-05-10T14:31:02;28.27;;;4.27;;
10557;SDS011;5327;47.238;-2.304;2023-05-10T14:33:28;16.33;;;3.70;;
10557;SDS011;5327;47.238;-2.304;2023-05-10T14:35:54;21.97;;;4.50;;
10557;SDS011;5327;47.238;-2.304;2023-05-10T14:38:21;18.23;;;3.97;;
10557;SDS011;5327;47.238;-2.304;2023-05-10T14:40:47;22.50;;;4.47;;
10557;SDS011;5327;47.238;-2.304;2023-05-10T14:43:14;22.47;;;4.47;;
10557;SDS011;5327;47.238;-2.304;2023-05-10T14:45:39;22.60;;;5.10;;
10557;SDS011;5327;47.238;-2.304;2023-05-10T14:48:06;26.57;;;5.10;;
10557;SDS011;5327;47.238;-2.304;2023-05-10T14:50:36;31.73;;;4.70;;
10557;SDS011;5327;47.238;-2.304;2023-05-10T14:53:01;22.30;;;4.53;;
10557;SDS011;5327;47.238;-2.304;2023-05-10T14:55:27;17.67;;;4.00;;
10557;SDS011;5327;47.238;-2.304;2023-05-10T14:57:53;22.37;;;5.70;;
10557;SDS011;5327;47.238;-2.304;2023-05-10T15:00:19;24.70;;;4.53;;
10557;SDS011;5327;47.238;-2.304;2023-05-10T15:02:45;27.43;;;5.27;;
10557;SDS011;5327;47.238;-2.304;2023-05-10T15:05:12;41.50;;;6.77;;
10557;SDS011;5327;47.238;-2.304;2023-05-10T15:07:37;25.97;;;4.63;;
10557;SDS011;5327;47.238;-2.304;2023-05-10T15:10:03;36.60;;;5.30;;